Time;durP1;ratioP1;P1;durP2;ratioP2;P2;SDS_P1;SDS_P2;PMS_P1;PMS_P2;Temp;Humidity;BMP_temperature;BMP_pressure;BME280_temperature;BME280_humidity;BME280_pressure;Samples;Min_cycle;Max_cycle;Signal;HPM_P1;HPM_P2
2022/07/11 00:01:29;;;;;;;;;;;21.10;74.80;;;;;;5013954;28;819;-68
2022/07/11 00:03:54;;;;;;;;;;;21.00;74.70;;;;;;5013483;28;943;-68
2022/07/11 00:06:20;;;;;;;;;;;21.10;74.70;;;;;;5013565;28;1204;-68
2022/07/11 00:08:45;;;;;;;;;;;21.00;74.70;;;;;;5013862;28;797;-68
2022/07/11 00:11:12;;;;;;;;;;;21.00;74.70;;;;;;5013602;28;2236;-66
2022/07/11 00:13:37;;;;;;;;;;;21.00;74.70;;;;;;5013522;28;878;-66
2022/07/11 00:16:03;;;;;;;;;;;21.00;74.70;;;;;;5023144;28;1269;-66
2022/07/11 00:18:28;;;;;;;;;;;21.00;74.70;;;;;;5031954;28;1123;-66
2022/07/11 00:20:54;;;;;;;;;;;21.00;74.70;;;;;;5013513;28;1010;-66
2022/07/11 00:23:19;;;;;;;;;;;21.00;74.70;;;;;;5013077;28;1050;-65
2022/07/11 00:25:45;;;;;;;;;;;21.00;74.70;;;;;;5021534;28;1356;-66
2022/07/11 00:28:10;;;;;;;;;;;21.10;74.80;;;;;;5033224;28;781;-66
2022/07/11 00:30:36;;;;;;;;;;;21.00;74.70;;;;;;5032742;28;792;-65
2022/07/11 00:33:01;;;;;;;;;;;21.00;74.70;;;;;;5032911;28;1965;-66
2022/07/11 00:35:26;;;;;;;;;;;21.00;74.70;;;;;;5032675;28;1199;-67
2022/07/11 00:37:52;;;;;;;;;;;21.00;74.70;;;;;;5033114;28;926;-66
2022/07/11 00:40:17;;;;;;;;;;;21.00;74.70;;;;;;5033031;28;1010;-68
2022/07/11 00:42:43;;;;;;;;;;;21.00;74.70;;;;;;5032449;28;839;-69
2022/07/11 00:45:08;;;;;;;;;;;21.10;74.80;;;;;;5032514;28;1268;-70
2022/07/11 00:47:34;;;;;;;;;;;21.00;74.80;;;;;;5032988;28;1069;-66
2022/07/11 00:49:59;;;;;;;;;;;21.00;74.70;;;;;;5032748;28;1002;-67
2022/07/11 00:52:25;;;;;;;;;;;21.00;74.70;;;;;;5015169;28;1903;-67
2022/07/11 00:54:50;;;;;;;;;;;21.00;74.70;;;;;;4998266;28;1389;-66
2022/07/11 00:57:16;;;;;;;;;;;21.00;74.70;;;;;;5032887;28;1189;-67
2022/07/11 00:59:41;;;;;;;;;;;21.00;74.70;;;;;;5014974;28;769;-67
2022/07/11 01:02:07;;;;;;;;;;;21.00;74.70;;;;;;5015226;28;862;-66
2022/07/11 01:04:32;;;;;;;;;;;21.00;74.70;;;;;;5031995;28;793;-67
2022/07/11 01:06:58;;;;;;;;;;;21.00;74.70;;;;;;5032476;28;1267;-67
2022/07/11 01:09:23;;;;;;;;;;;21.00;74.80;;;;;;5032803;28;1127;-65
2022/07/11 01:11:48;;;;;;;;;;;21.00;74.70;;;;;;5032494;28;1898;-66
2022/07/11 01:14:15;;;;;;;;;;;21.00;74.70;;;;;;5032240;28;1073;-66
2022/07/11 01:16:40;;;;;;;;;;;21.00;74.80;;;;;;5017756;28;1291;-67
2022/07/11 01:19:06;;;;;;;;;;;21.00;74.80;;;;;;5012456;28;1100;-67
2022/07/11 01:21:32;;;;;;;;;;;21.00;74.70;;;;;;5012735;28;879;-67
2022/07/11 01:23:58;;;;;;;;;;;21.00;74.70;;;;;;5012371;28;939;-66
2022/07/11 01:26:24;;;;;;;;;;;21.00;74.70;;;;;;5009368;28;1357;-68
2022/07/11 01:28:49;;;;;;;;;;;21.00;74.70;;;;;;5032225;28;847;-68
2022/07/11 01:31:15;;;;;;;;;;;21.00;74.80;;;;;;5014768;28;1914;-68
2022/07/11 01:33:41;;;;;;;;;;;21.00;74.70;;;;;;5032408;28;800;-68
2022/07/11 01:36:06;;;;;;;;;;;21.00;74.80;;;;;;5014504;28;1288;-68
2022/07/11 01:38:32;;;;;;;;;;;21.00;74.70;;;;;;5014874;28;954;-68
2022/07/11 01:40:57;;;;;;;;;;;21.00;74.80;;;;;;5031788;28;891;-68
2022/07/11 01:43:23;;;;;;;;;;;21.00;75.50;;;;;;5032401;28;966;-68
2022/07/11 01:45:54;;;;;;;;;;;21.00;74.70;;;;;;5031913;28;1193;-68
2022/07/11 01:48:19;;;;;;;;;;;21.00;74.70;;;;;;5014503;28;811;-68
2022/07/11 01:50:45;;;;;;;;;;;21.00;74.70;;;;;;5031925;28;1899;-68
2022/07/11 01:53:11;;;;;;;;;;;21.00;74.70;;;;;;5014802;28;950;-68
2022/07/11 01:55:36;;;;;;;;;;;21.00;74.70;;;;;;5016576;28;1219;-68
2022/07/11 01:58:02;;;;;;;;;;;21.00;74.70;;;;;;5018428;28;868;-68
2022/07/11 02:00:27;;;;;;;;;;;21.00;74.70;;;;;;5035484;28;788;-68
2022/07/11 02:02:53;;;;;;;;;;;21.00;74.70;;;;;;5035953;28;879;-69
2022/07/11 02:05:18;;;;;;;;;;;21.00;74.70;;;;;;5017463;28;1262;-70
2022/07/11 02:10:29;;;;;;;;;;;21.00;74.70;;;;;;5035894;28;764;-70
2022/07/11 02:12:56;;;;;;;;;;;21.00;74.70;;;;;;5035699;28;1967;-68
2022/07/11 02:15:21;;;;;;;;;;;21.00;74.70;;;;;;5031426;28;1292;-68
2022/07/11 02:17:47;;;;;;;;;;;21.00;74.70;;;;;;5015994;28;808;-68
2022/07/11 02:20:12;;;;;;;;;;;21.00;74.80;;;;;;5015744;28;1108;-68
2022/07/11 02:22:38;;;;;;;;;;;21.00;74.80;;;;;;5015523;28;996;-68
2022/07/11 02:25:03;;;;;;;;;;;21.00;74.80;;;;;;5018382;28;1267;-68
2022/07/11 02:27:29;;;;;;;;;;;21.00;74.70;;;;;;5035420;28;1065;-68
2022/07/11 02:29:54;;;;;;;;;;;21.00;74.70;;;;;;5035622;28;1029;-69
2022/07/11 02:32:19;;;;;;;;;;;21.00;74.80;;;;;;5035074;28;1957;-69
2022/07/11 02:34:45;;;;;;;;;;;21.00;74.70;;;;;;5034873;28;703;-69
2022/07/11 02:37:10;;;;;;;;;;;21.00;74.70;;;;;;5034954;28;1219;-69
2022/07/11 02:39:36;;;;;;;;;;;21.00;74.70;;;;;;5035076;28;808;-70
2022/07/11 02:42:01;;;;;;;;;;;21.00;74.70;;;;;;5035266;28;879;-68
2022/07/11 02:44:26;;;;;;;;;;;21.00;74.90;;;;;;5034531;28;990;-68
2022/07/11 02:46:52;;;;;;;;;;;21.00;74.80;;;;;;5034712;28;1201;-68
2022/07/11 02:49:17;;;;;;;;;;;21.00;74.70;;;;;;5035108;28;871;-68
2022/07/11 02:51:43;;;;;;;;;;;21.00;74.70;;;;;;5034753;28;1898;-67
2022/07/11 02:54:08;;;;;;;;;;;21.00;74.70;;;;;;5016817;28;1287;-67
2022/07/11 02:56:34;;;;;;;;;;;21.00;75.50;;;;;;5035022;28;1293;-67
2022/07/11 02:58:59;;;;;;;;;;;21.00;74.80;;;;;;5034814;28;895;-67
2022/07/11 03:01:24;;;;;;;;;;;21.00;74.70;;;;;;5034833;28;911;-67
2022/07/11 03:03:50;;;;;;;;;;;21.00;74.70;;;;;;5034344;28;1009;-67
2022/07/11 03:06:15;;;;;;;;;;;21.00;74.70;;;;;;5034431;28;1271;-68
2022/07/11 03:08:41;;;;;;;;;;;21.00;74.70;;;;;;5034757;28;1053;-69
2022/07/11 03:11:06;;;;;;;;;;;21.00;74.70;;;;;;5034479;28;1911;-67
2022/07/11 03:13:32;;;;;;;;;;;21.00;74.80;;;;;;5034698;28;879;-67
2022/07/11 03:15:57;;;;;;;;;;;21.00;74.70;;;;;;5025162;28;1686;-67
2022/07/11 03:18:23;;;;;;;;;;;21.00;74.70;;;;;;5014525;28;785;-67
2022/07/11 03:20:48;;;;;;;;;;;21.00;74.80;;;;;;5034576;28;1224;-68
2022/07/11 03:23:13;;;;;;;;;;;21.00;74.70;;;;;;5034579;28;966;-67
2022/07/11 03:25:39;;;;;;;;;;;21.00;74.70;;;;;;5025746;28;1288;-67
2022/07/11 03:28:04;;;;;;;;;;;21.00;74.80;;;;;;5014728;28;780;-67
2022/07/11 03:30:30;;;;;;;;;;;21.00;74.80;;;;;;5014194;28;902;-67
2022/07/11 03:32:55;;;;;;;;;;;21.00;74.80;;;;;;5014225;28;1906;-67
2022/07/11 03:38:05;;;;;;;;;;;21.00;74.70;;;;;;5014454;28;631;-67
2022/07/11 03:40:30;;;;;;;;;;;21.00;74.70;;;;;;5014421;28;1022;-68
2022/07/11 03:42:56;;;;;;;;;;;21.00;74.80;;;;;;5014478;28;795;-67
2022/07/11 03:45:21;;;;;;;;;;;21.00;74.70;;;;;;5013402;28;1196;-68
2022/07/11 03:47:48;;;;;;;;;;;21.00;74.80;;;;;;5014383;28;798;-68
2022/07/11 03:50:14;;;;;;;;;;;21.00;74.80;;;;;;5013943;28;859;-67
2022/07/11 03:52:39;;;;;;;;;;;21.00;74.70;;;;;;4996344;28;1967;-68
2022/07/11 03:55:05;;;;;;;;;;;21.00;74.70;;;;;;4996459;28;1196;-68
2022/07/11 03:57:30;;;;;;;;;;;21.00;74.80;;;;;;5014328;28;863;-67
2022/07/11 03:59:56;;;;;;;;;;;21.00;74.70;;;;;;5013767;28;871;-68
2022/07/11 04:02:21;;;;;;;;;;;21.00;74.70;;;;;;5013726;28;1049;-67
2022/07/11 04:04:47;;;;;;;;;;;21.00;74.80;;;;;;4995986;28;915;-67
2022/07/11 04:07:13;;;;;;;;;;;21.00;74.70;;;;;;5013878;28;1187;-69
2022/07/11 04:09:38;;;;;;;;;;;21.00;74.80;;;;;;5013777;28;867;-69
2022/07/11 04:12:04;;;;;;;;;;;21.00;74.70;;;;;;4996016;28;1977;-69
2022/07/11 04:14:29;;;;;;;;;;;21.00;74.70;;;;;;5013095;28;888;-70
2022/07/11 04:16:55;;;;;;;;;;;21.00;74.70;;;;;;5029857;28;1278;-70
2022/07/11 04:19:20;;;;;;;;;;;21.00;74.70;;;;;;5025336;28;1146;-69
2022/07/11 04:21:45;;;;;;;;;;;21.00;74.70;;;;;;4995786;28;872;-68
2022/07/11 04:24:11;;;;;;;;;;;21.00;74.80;;;;;;5013060;28;896;-68
2022/07/11 04:26:36;;;;;;;;;;;21.00;74.70;;;;;;5028781;28;1258;-69
2022/07/11 04:29:02;;;;;;;;;;;21.00;74.70;;;;;;5033231;28;807;-69
2022/07/11 04:31:27;;;;;;;;;;;21.00;74.70;;;;;;5033121;28;1906;-69
2022/07/11 04:33:53;;;;;;;;;;;21.00;74.70;;;;;;5032415;28;937;-69
2022/07/11 04:36:18;;;;;;;;;;;21.00;74.80;;;;;;5015329;28;1209;-69
2022/07/11 04:38:44;;;;;;;;;;;21.00;74.80;;;;;;5033172;28;871;-69
2022/07/11 04:41:10;;;;;;;;;;;21.00;74.70;;;;;;5032994;28;815;-69
2022/07/11 04:43:36;;;;;;;;;;;21.00;74.80;;;;;;5032293;28;800;-69
2022/07/11 04:46:02;;;;;;;;;;;21.00;74.70;;;;;;5032735;28;1201;-69
2022/07/11 04:48:28;;;;;;;;;;;21.00;74.80;;;;;;5033057;28;897;-69
2022/07/11 04:50:53;;;;;;;;;;;21.00;74.80;;;;;;5032989;28;1898;-69
2022/07/11 04:53:19;;;;;;;;;;;21.00;74.80;;;;;;5032949;28;804;-69
2022/07/11 04:55:44;;;;;;;;;;;21.00;74.80;;;;;;5032305;28;1199;-67
2022/07/11 04:58:11;;;;;;;;;;;21.00;74.80;;;;;;5032703;28;870;-65
2022/07/11 05:00:36;;;;;;;;;;;21.00;74.80;;;;;;5032758;28;902;-66
2022/07/11 05:03:02;;;;;;;;;;;21.00;74.80;;;;;;5032835;28;1279;-65
2022/07/11 05:05:27;;;;;;;;;;;21.00;74.80;;;;;;5014687;28;1153;-67
2022/07/11 05:07:53;;;;;;;;;;;21.00;74.80;;;;;;5032479;28;831;-66
2022/07/11 05:10:19;;;;;;;;;;;21.00;74.80;;;;;;5015134;28;899;-67
2022/07/11 05:12:44;;;;;;;;;;;21.00;74.70;;;;;;5032517;28;1910;-67
2022/07/11 05:15:09;;;;;;;;;;;21.00;74.80;;;;;;5026717;28;2186;-67
2022/07/11 05:17:35;;;;;;;;;;;21.00;74.80;;;;;;5021128;28;1672;-66
2022/07/11 05:20:00;;;;;;;;;;;21.00;74.80;;;;;;5005478;28;1406;-66
2022/07/11 05:22:26;;;;;;;;;;;21.00;74.80;;;;;;5021370;28;1365;-67
2022/07/11 05:24:52;;;;;;;;;;;21.00;74.80;;;;;;5024436;28;1579;-67
2022/07/11 05:27:17;;;;;;;;;;;21.00;74.80;;;;;;5015459;28;1441;-68
2022/07/11 05:29:43;;;;;;;;;;;21.00;74.80;;;;;;5007485;28;1664;-68
2022/07/11 05:32:09;;;;;;;;;;;21.00;74.80;;;;;;5018768;28;1961;-68
2022/07/11 05:34:34;;;;;;;;;;;21.00;74.80;;;;;;5035895;28;913;-67
2022/07/11 05:37:00;;;;;;;;;;;21.00;74.80;;;;;;5018947;28;1401;-68
2022/07/11 05:39:25;;;;;;;;;;;21.00;74.80;;;;;;5028190;28;1542;-68
2022/07/11 05:41:51;;;;;;;;;;;21.00;74.80;;;;;;5036296;28;868;-68
2022/07/11 05:44:18;;;;;;;;;;;21.00;74.80;;;;;;5035675;28;960;-68
2022/07/11 05:46:43;;;;;;;;;;;21.00;74.80;;;;;;5036588;28;1217;-68
2022/07/11 05:49:09;;;;;;;;;;;21.00;74.80;;;;;;5036537;28;965;-69
2022/07/11 05:51:36;;;;;;;;;;;21.00;74.90;;;;;;5036215;28;1955;-68
2022/07/11 05:54:01;;;;;;;;;;;21.00;74.80;;;;;;5035586;28;945;-68
2022/07/11 05:56:27;;;;;;;;;;;21.00;74.80;;;;;;5035928;28;1204;-68
2022/07/11 05:58:53;;;;;;;;;;;21.00;74.80;;;;;;5028129;28;2301;-68
2022/07/11 06:01:18;;;;;;;;;;;21.00;74.80;;;;;;5027810;28;1165;-68
2022/07/11 06:03:43;;;;;;;;;;;21.00;74.80;;;;;;5035332;28;1175;-68
2022/07/11 06:06:10;;;;;;;;;;;21.00;74.80;;;;;;5027352;28;1210;-67
2022/07/11 06:08:42;;;;;;;;;;;21.00;74.80;;;;;;5035799;28;961;-66
2022/07/11 06:11:08;;;;;;;;;;;21.00;74.80;;;;;;5027527;28;1910;-66
2022/07/11 06:13:33;;;;;;;;;;;21.00;74.80;;;;;;5035697;28;1053;-66
2022/07/11 06:15:59;;;;;;;;;;;21.00;74.80;;;;;;5026054;28;1341;-67
2022/07/11 06:18:24;;;;;;;;;;;21.00;74.80;;;;;;5015880;28;1088;-67
2022/07/11 06:20:50;;;;;;;;;;;21.00;74.80;;;;;;5015640;28;867;-67
2022/07/11 06:23:15;;;;;;;;;;;20.90;74.70;;;;;;5015882;28;864;-66
2022/07/11 06:25:41;;;;;;;;;;;21.00;75.50;;;;;;5027105;28;1381;-67
2022/07/11 06:28:07;;;;;;;;;;;21.00;74.80;;;;;;5019797;28;1334;-67
2022/07/11 06:30:32;;;;;;;;;;;21.00;74.80;;;;;;5015691;28;875;-67
2022/07/11 06:32:58;;;;;;;;;;;21.00;74.70;;;;;;5016094;28;1907;-66
2022/07/11 06:35:23;;;;;;;;;;;21.00;74.80;;;;;;4997674;28;1213;-66
2022/07/11 06:37:49;;;;;;;;;;;21.00;74.80;;;;;;4981849;28;825;-67
2022/07/11 06:40:17;;;;;;;;;;;21.00;75.50;;;;;;5014894;28;792;-66
2022/07/11 06:42:42;;;;;;;;;;;20.90;74.70;;;;;;5015106;28;870;-66
2022/07/11 06:45:08;;;;;;;;;;;21.00;74.80;;;;;;5014824;28;1193;-66
2022/07/11 06:47:34;;;;;;;;;;;21.00;74.80;;;;;;4997723;28;815;-66
2022/07/11 06:49:59;;;;;;;;;;;21.00;74.80;;;;;;5015435;28;879;-67
2022/07/11 06:52:24;;;;;;;;;;;21.00;74.80;;;;;;5014962;28;1952;-68
2022/07/11 06:54:50;;;;;;;;;;;21.00;74.80;;;;;;4997273;28;1809;-67
2022/07/11 06:57:15;;;;;;;;;;;21.00;74.80;;;;;;5015419;28;1288;-68
2022/07/11 06:59:41;;;;;;;;;;;21.00;74.80;;;;;;5028453;28;1032;-67
2022/07/11 07:02:06;;;;;;;;;;;21.00;74.80;;;;;;5030582;28;1143;-66
2022/07/11 07:04:32;;;;;;;;;;;21.00;74.80;;;;;;5034345;28;839;-66
2022/07/11 07:06:59;;;;;;;;;;;21.00;74.80;;;;;;5034619;28;1197;-66
2022/07/11 07:09:26;;;;;;;;;;;21.00;74.80;;;;;;5034361;28;878;-67
2022/07/11 07:11:51;;;;;;;;;;;21.00;74.80;;;;;;5034632;28;1894;-67
2022/07/11 07:14:17;;;;;;;;;;;21.00;75.60;;;;;;5016524;28;1041;-67
2022/07/11 07:16:42;;;;;;;;;;;21.00;74.80;;;;;;5019653;28;1263;-67
2022/07/11 07:19:08;;;;;;;;;;;20.90;74.80;;;;;;4996941;28;1174;-67
2022/07/11 07:21:33;;;;;;;;;;;21.00;74.80;;;;;;5014798;28;1014;-66
2022/07/11 07:23:58;;;;;;;;;;;21.00;74.80;;;;;;5014175;28;978;-66
2022/07/11 07:26:24;;;;;;;;;;;21.00;74.80;;;;;;5028463;28;1364;-66
2022/07/11 07:28:50;;;;;;;;;;;21.00;74.80;;;;;;5059102;22;2084;-70
2022/07/11 07:31:15;;;;;;;;;;;21.00;74.80;;;;;;5032918;28;1902;-69
2022/07/11 07:33:41;;;;;;;;;;;20.90;74.70;;;;;;5034411;28;855;-70
2022/07/11 07:36:06;;;;;;;;;;;21.00;74.80;;;;;;5016898;28;945;-69
2022/07/11 07:38:32;;;;;;;;;;;21.00;74.80;;;;;;5016891;28;1197;-70
2022/07/11 07:40:57;;;;;;;;;;;21.00;74.80;;;;;;5016856;28;858;-70
2022/07/11 07:43:23;;;;;;;;;;;21.00;74.80;;;;;;5016907;28;819;-70
2022/07/11 07:45:48;;;;;;;;;;;21.00;74.80;;;;;;5034483;28;799;-70
2022/07/11 07:48:14;;;;;;;;;;;21.00;74.80;;;;;;5016554;28;1221;-70
2022/07/11 07:50:39;;;;;;;;;;;21.00;74.90;;;;;;5034352;28;1005;-70
2022/07/11 07:53:04;;;;;;;;;;;21.00;74.80;;;;;;5015508;28;1955;-70
2022/07/11 07:55:30;;;;;;;;;;;21.00;74.80;;;;;;5033924;28;977;-70
2022/07/11 07:57:55;;;;;;;;;;;21.00;74.80;;;;;;5034011;28;1184;-71
2022/07/11 08:03:05;;;;;;;;;;;21.00;74.80;;;;;;5034124;28;610;-69
2022/07/11 08:05:31;;;;;;;;;;;21.00;74.80;;;;;;5016165;28;811;-69
2022/07/11 08:07:57;;;;;;;;;;;21.00;74.90;;;;;;5016681;28;1370;-68
2022/07/11 08:10:22;;;;;;;;;;;21.00;74.90;;;;;;5033949;28;792;-72
2022/07/11 08:12:48;;;;;;;;;;;21.00;74.80;;;;;;5016147;28;1906;-71
2022/07/11 08:15:13;;;;;;;;;;;21.00;74.90;;;;;;5036863;28;1139;-71
2022/07/11 08:17:41;;;;;;;;;;;21.00;74.80;;;;;;5053807;28;1270;-72
2022/07/11 08:20:07;;;;;;;;;;;21.00;74.90;;;;;;5053588;28;1142;-71
2022/07/11 08:22:32;;;;;;;;;;;21.00;74.80;;;;;;5053843;28;863;-69
2022/07/11 08:24:58;;;;;;;;;;;21.00;74.80;;;;;;5053401;28;1123;-69
2022/07/11 08:27:23;;;;;;;;;;;20.90;74.80;;;;;;5035769;28;1215;-69
2022/07/11 08:29:48;;;;;;;;;;;21.00;74.90;;;;;;5035820;28;930;-70
2022/07/11 08:32:14;;;;;;;;;;;21.00;74.90;;;;;;5035519;28;1958;-70
2022/07/11 08:34:40;;;;;;;;;;;21.00;74.90;;;;;;5053263;28;826;-70
2022/07/11 08:37:05;;;;;;;;;;;21.00;74.80;;;;;;5035603;28;1215;-70
2022/07/11 08:39:31;;;;;;;;;;;21.00;74.90;;;;;;5053498;28;1017;-69
2022/07/11 08:41:56;;;;;;;;;;;21.00;74.80;;;;;;5053339;28;894;-69
2022/07/11 08:44:22;;;;;;;;;;;21.00;74.90;;;;;;5053152;28;1005;-70
2022/07/11 08:46:47;;;;;;;;;;;21.00;74.80;;;;;;5035433;28;946;-69
2022/07/11 08:49:13;;;;;;;;;;;21.00;74.90;;;;;;5035477;28;1160;-68
2022/07/11 08:51:38;;;;;;;;;;;21.00;74.90;;;;;;5053458;28;1902;-69
2022/07/11 08:54:04;;;;;;;;;;;21.00;74.90;;;;;;5035153;28;959;-69
2022/07/11 08:56:29;;;;;;;;;;;21.00;74.90;;;;;;5035442;28;815;-69
2022/07/11 08:58:55;;;;;;;;;;;21.00;74.90;;;;;;5052871;28;1206;-69
2022/07/11 09:01:39;;;;;;;;;;;21.00;74.90;;;;;;5018628;28;1205;-73
2022/07/11 09:04:05;;;;;;;;;;;21.00;74.90;;;;;;5034684;28;1157;-70
2022/07/11 09:06:30;;;;;;;;;;;21.00;74.90;;;;;;5018715;28;1263;-72
2022/07/11 09:08:56;;;;;;;;;;;21.00;74.90;;;;;;5053101;28;1203;-73
2022/07/11 09:11:22;;;;;;;;;;;21.00;74.90;;;;;;5052888;28;1897;-72
2022/07/11 09:13:47;;;;;;;;;;;21.00;74.90;;;;;;5034352;28;1252;-70
2022/07/11 09:16:13;;;;;;;;;;;21.00;74.90;;;;;;5052402;28;1279;-72
2022/07/11 09:18:39;;;;;;;;;;;21.00;74.90;;;;;;5052116;28;1328;-71
2022/07/11 09:26:40;;;;;;;;;;;21.00;74.90;;;;;;5037761;28;1120;-70
2022/07/11 09:29:08;;;;;;;;;;;21.00;74.90;;;;;;5052459;28;1208;-71
2022/07/11 09:31:34;;;;;;;;;;;21.00;74.90;;;;;;5035106;28;1963;-72
2022/07/11 09:34:04;;;;;;;;;;;21.00;74.90;;;;;;5018195;28;1184;-72
2022/07/11 09:36:33;;;;;;;;;;;21.00;74.90;;;;;;5035244;28;815;-68
2022/07/11 09:38:59;;;;;;;;;;;21.00;74.90;;;;;;5035154;28;1287;-70
2022/07/11 09:41:24;;;;;;;;;;;21.00;74.90;;;;;;5034830;28;1379;-68
2022/07/11 09:43:50;;;;;;;;;;;21.00;74.90;;;;;;5034451;28;831;-69
2022/07/11 09:46:18;;;;;;;;;;;21.00;74.90;;;;;;5052758;28;1077;-69
2022/07/11 09:48:44;;;;;;;;;;;21.00;74.90;;;;;;5034782;28;1215;-68
2022/07/11 09:51:09;;;;;;;;;;;21.00;74.90;;;;;;5034741;28;1957;-71
2022/07/11 09:53:35;;;;;;;;;;;21.00;74.90;;;;;;5034581;28;1364;-69
2022/07/11 09:56:00;;;;;;;;;;;21.00;74.90;;;;;;5034508;28;831;-72
2022/07/11 09:58:28;;;;;;;;;;;21.00;74.90;;;;;;5052547;28;1283;-72
2022/07/11 10:00:54;;;;;;;;;;;21.00;74.90;;;;;;5018232;28;1399;-72
2022/07/11 10:03:20;;;;;;;;;;;21.00;74.90;;;;;;5052560;28;859;-72
2022/07/11 10:05:45;;;;;;;;;;;21.00;74.90;;;;;;5052202;28;752;-72
2022/07/11 10:08:12;;;;;;;;;;;21.00;74.90;;;;;;5052415;28;1188;-72
2022/07/11 10:10:37;;;;;;;;;;;21.00;74.90;;;;;;5052220;28;854;-72
2022/07/11 10:13:03;;;;;;;;;;;21.00;74.90;;;;;;5034467;28;1902;-71
2022/07/11 10:15:28;;;;;;;;;;;21.00;74.90;;;;;;5052716;28;1170;-71
2022/07/11 10:18:06;;;;;;;;;;;21.00;74.90;;;;;;5056168;28;1216;-72
2022/07/11 10:20:34;;;;;;;;;;;21.00;74.90;;;;;;5038223;28;1213;-72
2022/07/11 10:23:05;;;;;;;;;;;21.00;74.90;;;;;;5021324;28;1173;-71
2022/07/11 10:25:43;;;;;;;;;;;21.00;74.90;;;;;;5037782;28;1199;-72
2022/07/11 10:28:22;;;;;;;;;;;21.00;74.90;;;;;;5037597;28;1446;-72
2022/07/11 10:30:48;;;;;;;;;;;21.00;74.90;;;;;;5037992;28;882;-72
2022/07/11 10:33:14;;;;;;;;;;;21.00;74.90;;;;;;5037922;28;1902;-72
2022/07/11 10:35:40;;;;;;;;;;;21.00;74.90;;;;;;5055312;28;855;-73
2022/07/11 10:38:06;;;;;;;;;;;21.00;74.90;;;;;;5021273;28;1224;-72
2022/07/11 10:40:39;;;;;;;;;;;21.00;74.90;;;;;;5055614;28;867;-71
2022/07/11 10:43:05;;;;;;;;;;;21.00;74.90;;;;;;5037516;28;1385;-73
2022/07/11 10:45:43;;;;;;;;;;;21.00;74.90;;;;;;5037440;28;1006;-72
2022/07/11 10:48:11;;;;;;;;;;;21.00;74.90;;;;;;5037256;28;1456;-72
2022/07/11 10:50:38;;;;;;;;;;;21.00;74.90;;;;;;5021323;28;1393;-73
2022/07/11 10:53:08;;;;;;;;;;;21.00;74.90;;;;;;5037637;28;1875;-73
2022/07/11 10:55:34;;;;;;;;;;;21.00;74.90;;;;;;5055160;28;843;-73
2022/07/11 10:58:06;;;;;;;;;;;21.00;74.90;;;;;;5037385;28;1318;-73
2022/07/11 11:00:32;;;;;;;;;;;21.00;74.90;;;;;;5055175;28;862;-71
2022/07/11 11:03:01;;;;;;;;;;;21.00;74.90;;;;;;5037351;28;816;-71
2022/07/11 11:05:49;;;;;;;;;;;21.00;74.90;;;;;;5037116;28;1312;-71
2022/07/11 11:08:36;;;;;;;;;;;21.00;74.80;;;;;;5055007;28;1223;-71
2022/07/11 11:11:04;;;;;;;;;;;21.00;74.90;;;;;;5054940;28;915;-71
2022/07/11 11:13:30;;;;;;;;;;;21.00;74.90;;;;;;5037195;28;783;-70
2022/07/11 11:15:56;;;;;;;;;;;21.00;74.90;;;;;;5053790;28;1295;-71
2022/07/11 11:18:21;;;;;;;;;;;21.00;74.90;;;;;;5035512;28;1321;-73
2022/07/11 11:20:47;;;;;;;;;;;21.00;74.90;;;;;;5053364;28;1288;-71
2022/07/11 11:23:12;;;;;;;;;;;21.00;74.90;;;;;;5020495;28;1158;-71
2022/07/11 11:25:38;;;;;;;;;;;21.00;74.90;;;;;;5036364;28;1510;-71
2022/07/11 11:28:03;;;;;;;;;;;21.00;74.90;;;;;;5035417;28;1234;-71
2022/07/11 11:30:29;;;;;;;;;;;21.00;74.90;;;;;;5054696;28;941;-71
2022/07/11 11:32:55;;;;;;;;;;;21.00;74.90;;;;;;5036723;28;1914;-71
2022/07/11 11:35:20;;;;;;;;;;;21.00;74.90;;;;;;5036386;28;848;-71
2022/07/11 11:37:46;;;;;;;;;;;21.00;74.90;;;;;;5054428;28;1212;-70
2022/07/11 11:40:12;;;;;;;;;;;21.00;74.90;;;;;;5036397;28;890;-71
2022/07/11 11:42:37;;;;;;;;;;;21.00;74.90;;;;;;5036482;28;902;-71
2022/07/11 11:45:03;;;;;;;;;;;21.00;74.90;;;;;;5036258;28;1393;-71
2022/07/11 11:47:29;;;;;;;;;;;21.00;74.90;;;;;;5054224;28;1193;-71
2022/07/11 11:49:55;;;;;;;;;;;21.00;74.90;;;;;;5036415;28;902;-72
2022/07/11 11:52:21;;;;;;;;;;;21.00;74.90;;;;;;5036180;28;1898;-71
2022/07/11 11:54:51;;;;;;;;;;;21.00;74.90;;;;;;5019483;28;1564;-70
2022/07/11 11:57:16;;;;;;;;;;;21.00;74.90;;;;;;5019726;28;1305;-71
2022/07/11 11:59:42;;;;;;;;;;;21.00;74.90;;;;;;5036448;28;819;-71
2022/07/11 12:02:08;;;;;;;;;;;21.00;74.90;;;;;;5053932;28;795;-71
2022/07/11 12:04:34;;;;;;;;;;;21.00;74.90;;;;;;5035855;28;898;-72
2022/07/11 12:07:00;;;;;;;;;;;21.00;74.90;;;;;;5036024;28;1286;-71
2022/07/11 12:14:54;;;;;;;;;;;21.00;74.90;;;;;;5053537;28;1119;-71
2022/07/11 12:17:26;;;;;;;;;;;21.00;74.90;;;;;;5035256;28;1246;-68
2022/07/11 12:19:52;;;;;;;;;;;21.00;74.90;;;;;;5053236;28;1146;-68
2022/07/11 12:22:17;;;;;;;;;;;21.00;74.90;;;;;;5035816;28;827;-70
2022/07/11 12:24:46;;;;;;;;;;;21.00;74.90;;;;;;5053423;28;931;-71
2022/07/11 12:27:11;;;;;;;;;;;21.00;74.90;;;;;;5015819;28;1279;-72
2022/07/11 12:29:40;;;;;;;;;;;21.00;74.90;;;;;;5015767;28;1210;-72
2022/07/11 12:32:11;;;;;;;;;;;21.00;74.90;;;;;;5033410;28;1957;-72
2022/07/11 12:34:37;;;;;;;;;;;21.00;74.90;;;;;;4999137;28;1256;-71
2022/07/11 12:37:09;;;;;;;;;;;21.00;74.90;;;;;;5033378;28;1201;-68
2022/07/11 12:39:38;;;;;;;;;;;21.00;74.80;;;;;;5015507;28;955;-70
2022/07/11 12:42:23;;;;;;;;;;;21.00;74.90;;;;;;5015672;28;915;-68
2022/07/11 12:44:58;;;;;;;;;;;21.00;74.90;;;;;;5032886;28;902;-68
2022/07/11 12:47:24;;;;;;;;;;;21.00;74.90;;;;;;5015398;28;1307;-69
2022/07/11 12:49:50;;;;;;;;;;;21.00;74.80;;;;;;5033242;28;828;-72
2022/07/11 12:52:15;;;;;;;;;;;21.00;74.90;;;;;;5033077;28;2329;-72
2022/07/11 12:54:41;;;;;;;;;;;21.00;74.90;;;;;;5015473;28;1010;-72
2022/07/11 12:57:07;;;;;;;;;;;21.00;74.90;;;;;;5015465;28;1206;-72
2022/07/11 12:59:32;;;;;;;;;;;21.00;74.90;;;;;;5015158;28;800;-72
2022/07/11 13:01:58;;;;;;;;;;;21.00;74.90;;;;;;5033028;28;807;-72
2022/07/11 13:04:37;;;;;;;;;;;21.00;74.90;;;;;;5032688;28;859;-72
2022/07/11 13:10:02;;;;;;;;;;;21.00;74.90;;;;;;5017794;28;594;-72
2022/07/11 13:12:28;;;;;;;;;;;21.00;74.90;;;;;;5014735;28;1894;-72
2022/07/11 13:15:09;;;;;;;;;;;21.00;74.90;;;;;;5032789;28;1135;-72
2022/07/11 13:17:35;;;;;;;;;;;21.00;74.90;;;;;;5052220;28;1243;-71
2022/07/11 13:20:00;;;;;;;;;;;21.00;74.90;;;;;;5034591;28;1182;-72
2022/07/11 13:22:26;;;;;;;;;;;21.00;74.90;;;;;;5052147;28;886;-72
2022/07/11 13:24:51;;;;;;;;;;;21.00;74.90;;;;;;5052409;28;1186;-72
2022/07/11 13:27:17;;;;;;;;;;;21.00;74.90;;;;;;5052307;28;1280;-72
2022/07/11 13:29:42;;;;;;;;;;;21.00;74.90;;;;;;5031601;23;3883;-66
2022/07/11 13:32:08;;;;;;;;;;;21.00;74.90;;;;;;5012619;28;1907;-66
2022/07/11 13:34:33;;;;;;;;;;;21.00;74.90;;;;;;4994827;28;891;-67
2022/07/11 13:36:59;;;;;;;;;;;21.00;74.90;;;;;;5012689;28;835;-67
2022/07/11 13:39:24;;;;;;;;;;;21.00;74.90;;;;;;4997725;28;1303;-66
2022/07/11 13:41:50;;;;;;;;;;;21.00;74.90;;;;;;4993109;28;929;-66
2022/07/11 13:44:15;;;;;;;;;;;21.00;74.90;;;;;;4992596;28;757;-67
2022/07/11 13:46:41;;;;;;;;;;;21.00;74.90;;;;;;5008269;28;860;-67
2022/07/11 13:49:06;;;;;;;;;;;21.00;74.90;;;;;;4992759;28;1197;-66
2022/07/11 13:51:32;;;;;;;;;;;21.00;74.90;;;;;;4995112;28;1899;-67
2022/07/11 13:53:57;;;;;;;;;;;21.00;74.90;;;;;;4996470;28;1022;-67
2022/07/11 13:56:23;;;;;;;;;;;21.00;74.90;;;;;;4996836;28;1010;-66
2022/07/11 13:58:48;;;;;;;;;;;21.00;74.90;;;;;;4996710;28;1200;-66
2022/07/11 14:01:14;;;;;;;;;;;21.00;74.90;;;;;;4996809;28;1068;-66
2022/07/11 14:03:39;;;;;;;;;;;21.00;74.80;;;;;;4996424;28;832;-67
2022/07/11 14:06:05;;;;;;;;;;;21.00;74.90;;;;;;4996373;28;847;-66
2022/07/11 14:08:32;;;;;;;;;;;21.00;74.90;;;;;;4996395;28;1110;-67
2022/07/11 14:10:57;;;;;;;;;;;21.00;74.90;;;;;;5011737;28;840;-67
2022/07/11 14:13:23;;;;;;;;;;;21.00;74.90;;;;;;4996366;28;1906;-67
2022/07/11 14:15:49;;;;;;;;;;;21.00;74.90;;;;;;5003685;28;1105;-67
2022/07/11 14:18:15;;;;;;;;;;;21.00;74.90;;;;;;4998121;28;1386;-67
2022/07/11 14:20:40;;;;;;;;;;;21.00;74.90;;;;;;4997294;28;1159;-67
2022/07/11 14:23:06;;;;;;;;;;;21.00;74.90;;;;;;4978620;28;1320;-67
2022/07/11 14:25:31;;;;;;;;;;;21.00;74.90;;;;;;4995807;28;1021;-67
2022/07/11 14:27:57;;;;;;;;;;;21.00;74.90;;;;;;4996002;28;1196;-67
2022/07/11 14:30:22;;;;;;;;;;;21.00;74.80;;;;;;4996120;28;800;-66
2022/07/11 14:32:48;;;;;;;;;;;21.00;74.90;;;;;;4962187;28;1915;-67
2022/07/11 14:35:13;;;;;;;;;;;21.00;74.80;;;;;;4995633;28;776;-66
2022/07/11 14:37:39;;;;;;;;;;;21.00;74.90;;;;;;4978453;28;1228;-67
2022/07/11 14:40:04;;;;;;;;;;;21.00;74.90;;;;;;4996244;28;923;-67
2022/07/11 14:42:30;;;;;;;;;;;21.00;74.80;;;;;;4978717;28;1019;-67
2022/07/11 14:44:55;;;;;;;;;;;21.00;74.90;;;;;;4978359;28;1265;-66
2022/07/11 14:47:21;;;;;;;;;;;21.00;74.90;;;;;;4996167;28;823;-67
2022/07/11 14:49:47;;;;;;;;;;;21.00;74.90;;;;;;4995894;28;1198;-67
2022/07/11 14:52:12;;;;;;;;;;;21.00;75.60;;;;;;4995957;28;1957;-67